createdAt,value
2018-08-24T00:00:39.254Z,23.2
2018-08-24T00:01:29.269Z,23.1
2018-08-24T00:02:19.867Z,23.1
2018-08-24T00:03:08.039Z,23.1
2018-08-24T00:04:00.034Z,23.2
2018-08-24T00:04:49.505Z,23.2
2018-08-24T00:05:39.636Z,23.1
2018-08-24T00:06:30.140Z,23.1
2018-08-24T00:07:20.144Z,23.1
2018-08-24T00:08:09.238Z,23.1
2018-08-24T00:08:59.878Z,23.2
2018-08-24T00:09:49.640Z,23.1
2018-08-24T00:10:40.073Z,23.1
2018-08-24T00:11:29.868Z,23.2
2018-08-24T00:12:19.790Z,23.1
2018-08-24T00:31:20.800Z,23.1
2018-08-24T00:32:11.030Z,23.1
2018-08-24T00:32:59.848Z,23.1
2018-08-24T00:33:50.497Z,23.1
2018-08-24T00:34:41.078Z,23.1
2018-08-24T00:35:30.119Z,23.1
2018-08-24T00:36:21.201Z,23.1
2018-08-24T00:37:10.772Z,23.1
2018-08-24T00:38:01.129Z,23.1
2018-08-24T00:38:50.576Z,23.1
2018-08-24T00:39:40.449Z,23.1
2018-08-24T00:40:31.349Z,23.1
2018-08-24T00:41:21.099Z,23.1
2018-08-24T00:42:10.629Z,23.1
2018-08-24T00:43:00.078Z,23.1
2018-08-24T00:43:50.997Z,23.1
2018-08-24T00:44:41.390Z,23.1
2018-08-24T00:45:30.537Z,23.1
2018-08-24T00:46:21.797Z,23.1
2018-08-24T00:47:10.369Z,23.1
2018-08-24T00:48:01.034Z,23.1
2018-08-24T00:48:51.674Z,23.1
2018-08-24T00:49:40.604Z,23.1
2018-08-24T00:50:31.502Z,23.1
2018-08-24T00:51:22.834Z,23.1
2018-08-24T00:52:12.166Z,23.1
2018-08-24T00:53:01.912Z,23.1
2018-08-24T00:53:51.818Z,23.1
2018-08-24T00:54:42.163Z,23.1
2018-08-24T00:55:31.684Z,23.1
2018-08-24T00:56:21.783Z,23.1
2018-08-24T00:57:12.881Z,23.1
2018-08-24T00:58:02.370Z,23.1
2018-08-24T00:58:52.726Z,23.1
2018-08-24T00:59:41.625Z,23.1
2018-08-24T01:00:32.852Z,23.1
2018-08-24T01:01:22.495Z,23.1
2018-08-24T01:02:12.360Z,23.1
2018-08-24T01:03:02.198Z,23.1
2018-08-24T01:03:52.552Z,23.1
2018-08-24T01:04:43.174Z,23.1
2018-08-24T01:05:32.674Z,23.1
2018-08-24T01:06:23.485Z,23.1
2018-08-24T01:07:14.080Z,23.1
2018-08-24T01:08:03.360Z,23.1
2018-08-24T01:08:53.498Z,23.1
2018-08-24T01:09:41.613Z,23.1
2018-08-24T01:10:32.402Z,23.1
2018-08-24T01:11:22.878Z,23.1
2018-08-24T01:12:13.719Z,23.1
2018-08-24T01:13:02.427Z,23.1
2018-08-24T01:13:52.531Z,23.1
2018-08-24T01:14:44.011Z,23.1
2018-08-24T01:15:33.932Z,23.1
2018-08-24T01:16:23.186Z,23.1
2018-08-24T01:17:14.100Z,23.1
2018-08-24T01:18:04.377Z,23.1
2018-08-24T01:18:53.632Z,23.1
2018-08-24T01:19:44.031Z,23.1
2018-08-24T01:20:33.278Z,23.1
2018-08-24T01:21:23.897Z,23.1
2018-08-24T01:22:15.380Z,23.1
2018-08-24T01:23:04.248Z,23.1
2018-08-24T01:23:54.323Z,23.1
2018-08-24T01:24:44.355Z,23.1
2018-08-24T01:25:34.173Z,23.1
2018-08-24T01:26:24.496Z,23.1
2018-08-24T01:27:14.328Z,23.1
2018-08-24T01:28:02.486Z,23.1
2018-08-24T01:28:54.411Z,23.1
2018-08-24T01:29:44.599Z,23.1
2018-08-24T01:30:48.985Z,23.1
2018-08-24T01:31:24.919Z,23.1
2018-08-24T01:32:15.830Z,23.1
2018-08-24T01:33:05.235Z,23.1
2018-08-24T01:33:55.084Z,23.1
2018-08-24T01:34:44.638Z,23.1
2018-08-24T01:35:35.678Z,23.1
2018-08-24T01:36:25.787Z,23.1
2018-08-24T01:37:15.060Z,23.1
2018-08-24T01:38:05.570Z,23.1
2018-08-24T01:38:56.035Z,23.1
2018-08-24T01:39:44.961Z,23.1
2018-08-24T01:40:35.596Z,23.1
2018-08-24T01:41:25.932Z,23.1
2018-08-24T01:42:30.697Z,23.1
2018-08-24T01:43:06.003Z,23.1
2018-08-24T01:43:55.575Z,23.1
2018-08-24T01:44:45.418Z,23.1
2018-08-24T01:45:35.222Z,23.1
2018-08-24T01:46:25.451Z,23.1
2018-08-24T01:47:16.173Z,23.1
2018-08-24T01:48:05.113Z,23.1
2018-08-24T01:48:54.772Z,23.1
2018-08-24T01:49:46.224Z,23.1
2018-08-24T01:50:36.356Z,23.1
2018-08-24T01:51:26.566Z,23.1
2018-08-24T01:52:17.236Z,23.1
2018-08-24T01:53:06.823Z,23.1
2018-08-24T01:53:57.074Z,23.1
2018-08-24T01:54:46.367Z,23.1
2018-08-24T01:55:35.974Z,23.1
2018-08-24T01:56:25.976Z,23.1
2018-08-24T01:57:16.887Z,23.1
2018-08-24T01:58:06.445Z,23.1
2018-08-24T01:58:56.951Z,23.1
2018-08-24T01:59:47.020Z,23.1
2018-08-24T02:00:36.078Z,23.1
2018-08-24T02:01:27.236Z,23.1
2018-08-24T02:02:16.972Z,23.1
2018-08-24T02:03:07.084Z,23.1
2018-08-24T02:03:57.363Z,23.1
2018-08-24T02:04:47.990Z,23.1
2018-08-24T02:05:36.710Z,23.1
2018-08-24T02:06:27.670Z,23.1
2018-08-24T02:07:17.596Z,23.1
2018-08-24T02:08:08.312Z,23.1
2018-08-24T02:08:57.793Z,23.1
2018-08-24T02:10:02.794Z,23.1
2018-08-24T02:10:38.146Z,23.1
2018-08-24T02:11:27.704Z,23.1
2018-08-24T02:12:18.524Z,23.1
2018-08-24T02:13:22.151Z,23.1
2018-08-24T02:13:58.790Z,23.1
2018-08-24T02:14:47.935Z,23.1
2018-08-24T02:15:38.090Z,23.1
2018-08-24T02:16:28.354Z,23.1
2018-08-24T02:17:17.909Z,23.1
2018-08-24T02:18:07.092Z,23.1
2018-08-24T02:18:58.592Z,23.1
2018-08-24T02:19:48.264Z,23.1
2018-08-24T02:20:38.352Z,23.1
2018-08-24T02:21:28.213Z,23.1
2018-08-24T02:22:18.795Z,23.1
2018-08-24T02:23:09.142Z,23.1
2018-08-24T02:23:59.212Z,23.1
2018-08-24T02:24:49.308Z,23.1
2018-08-24T02:25:39.143Z,23.1
2018-08-24T02:26:43.518Z,23.1
2018-08-24T02:27:18.650Z,23.1
2018-08-24T02:28:09.637Z,23.1
2018-08-24T02:28:59.014Z,23.1
2018-08-24T02:29:48.294Z,23.1
2018-08-24T02:30:39.997Z,23.1
2018-08-24T02:31:29.640Z,23.1
2018-08-24T02:32:19.084Z,23.1
2018-08-24T02:33:09.071Z,23.1
2018-08-24T02:33:59.956Z,23.1
2018-08-24T02:34:49.677Z,23.1
2018-08-24T02:35:40.666Z,23.1
2018-08-24T02:36:28.805Z,23.1
2018-08-24T02:37:33.756Z,23.1
2018-08-24T02:38:24.928Z,23.1
2018-08-24T02:39:00.121Z,23.1
2018-08-24T02:39:50.179Z,23.1
2018-08-24T02:40:40.453Z,23.1
2018-08-24T02:41:30.271Z,23.1
2018-08-24T02:42:20.862Z,23.1
2018-08-24T02:43:10.729Z,23.1
2018-08-24T02:44:00.410Z,23.1
2018-08-24T02:44:51.067Z,23.1
2018-08-24T02:45:40.879Z,23.1
2018-08-24T02:46:31.185Z,23.1
2018-08-24T02:47:20.699Z,23.1
2018-08-24T02:48:11.313Z,23.1
2018-08-24T02:49:00.875Z,23.1
2018-08-24T02:49:51.149Z,23.1
2018-08-24T02:50:40.966Z,23.1
2018-08-24T02:51:31.271Z,23.1
2018-08-24T02:52:21.360Z,23.1
2018-08-24T02:53:11.122Z,23.1
2018-08-24T02:54:00.915Z,23.1
2018-08-24T02:54:51.571Z,23.1
2018-08-24T02:55:41.473Z,23.1
2018-08-24T02:56:30.826Z,23.1
2018-08-24T02:57:20.837Z,23.1
2018-08-24T02:58:11.953Z,23.1
2018-08-24T02:59:01.174Z,23.1
2018-08-24T02:59:50.581Z,23.1
2018-08-24T03:00:56.153Z,23.1
2018-08-24T03:01:31.763Z,23.1
2018-08-24T03:02:22.461Z,23.1
2018-08-24T03:03:10.890Z,23.1
2018-08-24T03:04:01.768Z,23.1
2018-08-24T03:04:52.077Z,23.1
2018-08-24T03:05:46.046Z,23.1
2018-08-24T03:06:31.843Z,23.1
2018-08-24T03:07:22.530Z,23.1
2018-08-24T03:08:13.074Z,23.1
2018-08-24T03:09:02.116Z,23.1
2018-08-24T03:09:53.663Z,23.1
2018-08-24T03:10:41.788Z,23.1
2018-08-24T03:11:33.416Z,23.1
2018-08-24T03:12:22.304Z,23.1
2018-08-24T03:13:12.760Z,23.1
2018-08-24T03:14:02.228Z,23.1
2018-08-24T03:14:52.881Z,23.1
2018-08-24T03:15:43.420Z,23.1
2018-08-24T03:16:34.935Z,23.1
2018-08-24T03:17:23.397Z,23.1
2018-08-24T03:18:12.243Z,23.1
2018-08-24T03:19:02.965Z,23.1
2018-08-24T03:19:52.769Z,23.1
2018-08-24T03:20:43.070Z,23.1
2018-08-24T03:21:33.585Z,23.1
2018-08-24T03:22:23.712Z,23.1
2018-08-24T03:23:12.907Z,23.1
2018-08-24T03:24:03.507Z,23.1
2018-08-24T03:24:52.782Z,23.1
2018-08-24T03:25:44.103Z,23.1
2018-08-24T03:26:33.298Z,23.1
2018-08-24T03:27:24.113Z,23.1
2018-08-24T03:28:14.319Z,23.1
2018-08-24T03:29:03.620Z,23.1
2018-08-24T03:29:54.505Z,23.1
2018-08-24T03:30:44.388Z,23.1
2018-08-24T03:31:34.461Z,23.1
2018-08-24T03:32:25.123Z,23.1
2018-08-24T03:33:14.429Z,23.1
2018-08-24T03:34:03.991Z,23.1
2018-08-24T03:34:54.875Z,23.1
2018-08-24T03:35:45.060Z,23.1
2018-08-24T03:36:35.118Z,23.1
2018-08-24T03:37:23.770Z,23.1
2018-08-24T03:38:14.430Z,23.1
2018-08-24T03:39:03.661Z,23.1
2018-08-24T03:39:55.748Z,23.1
2018-08-24T03:40:45.103Z,23.1
2018-08-24T03:41:35.470Z,23.1
2018-08-24T03:42:25.467Z,23.1
2018-08-24T03:43:15.636Z,23.1
2018-08-24T03:44:05.186Z,23.1
2018-08-24T03:44:54.334Z,23.1
2018-08-24T03:45:44.734Z,23.1
2018-08-24T03:46:34.818Z,23.1
2018-08-24T03:47:25.106Z,23.1
2018-08-24T03:48:14.779Z,23.1
2018-08-24T03:49:04.278Z,23.1
2018-08-24T03:51:00.506Z,23
2018-08-24T03:51:35.697Z,23
2018-08-24T03:52:40.821Z,23
2018-08-24T03:53:16.751Z,23
2018-08-24T03:54:05.008Z,23
2018-08-24T03:54:54.498Z,23
2018-08-24T03:55:46.242Z,23
2018-08-24T03:56:37.005Z,23
2018-08-24T03:57:26.625Z,23
2018-08-24T03:58:16.167Z,23
2018-08-24T03:59:06.742Z,23
2018-08-24T03:59:56.582Z,23
2018-08-24T04:00:46.075Z,23
2018-08-24T04:01:37.325Z,23
2018-08-24T04:02:25.499Z,23
2018-08-24T04:03:16.270Z,23
2018-08-24T04:04:06.801Z,23
2018-08-24T04:04:56.417Z,23
2018-08-24T04:05:46.409Z,23
2018-08-24T04:06:37.653Z,23
2018-08-24T04:07:27.408Z,23
2018-08-24T04:08:16.070Z,23
2018-08-24T04:09:06.766Z,23
2018-08-24T04:09:57.076Z,22.9
2018-08-24T04:10:47.421Z,23
2018-08-24T04:11:37.731Z,23
2018-08-24T04:12:26.639Z,23
2018-08-24T04:13:17.298Z,23
2018-08-24T04:14:08.116Z,23
2018-08-24T04:14:57.706Z,22.9
2018-08-24T04:15:47.248Z,23
2018-08-24T04:16:36.576Z,23
2018-08-24T04:17:28.344Z,23
2018-08-24T04:18:17.661Z,23
2018-08-24T04:19:07.728Z,23
2018-08-24T04:19:57.613Z,23
2018-08-24T04:20:48.071Z,22.9
2018-08-24T04:21:37.795Z,23
2018-08-24T04:22:28.356Z,23
2018-08-24T04:23:18.156Z,23
2018-08-24T04:24:07.036Z,23
2018-08-24T04:24:58.795Z,23
2018-08-24T04:25:49.540Z,23
2018-08-24T04:26:38.683Z,23
2018-08-24T04:27:28.609Z,23
2018-08-24T04:28:18.497Z,23
2018-08-24T04:29:08.263Z,23
2018-08-24T04:29:58.581Z,23
2018-08-24T04:30:48.985Z,23
2018-08-24T04:31:39.058Z,23
2018-08-24T04:32:29.665Z,23
2018-08-24T04:33:19.383Z,23
2018-08-24T04:34:08.599Z,22.9
2018-08-24T04:35:01.129Z,23
2018-08-24T04:35:49.091Z,23
2018-08-24T04:36:39.342Z,23
2018-08-24T04:37:28.930Z,23
2018-08-24T04:38:19.248Z,22.9
2018-08-24T04:39:08.787Z,23
2018-08-24T04:39:58.798Z,22.9
2018-08-24T04:40:48.410Z,23
2018-08-24T04:41:39.534Z,22.9
2018-08-24T04:42:30.155Z,22.9
2018-08-24T05:00:30.829Z,22.9
2018-08-24T05:01:21.653Z,22.9
2018-08-24T05:02:12.048Z,22.9
2018-08-24T05:03:01.799Z,22.9
2018-08-24T05:03:52.143Z,22.9
2018-08-24T05:04:41.893Z,22.9
2018-08-24T05:05:32.714Z,22.9
2018-08-24T05:06:21.846Z,22.9
2018-08-24T05:07:12.145Z,22.9
2018-08-24T05:08:01.659Z,22.9
2018-08-24T05:08:51.438Z,22.9
2018-08-24T05:09:42.675Z,22.9
2018-08-24T05:10:32.709Z,22.9
2018-08-24T05:11:22.162Z,22.9
2018-08-24T05:12:11.411Z,22.9
2018-08-24T05:13:02.598Z,22.9
2018-08-24T05:13:53.185Z,22.9
2018-08-24T05:14:42.716Z,22.9
2018-08-24T05:15:33.693Z,22.9
2018-08-24T05:16:23.136Z,22.9
2018-08-24T05:17:12.947Z,22.9
2018-08-24T05:18:01.537Z,22.9
2018-08-24T05:18:52.713Z,22.9
2018-08-24T05:19:43.058Z,22.9
2018-08-24T05:20:34.170Z,22.9
2018-08-24T05:21:23.386Z,22.9
2018-08-24T05:22:12.158Z,22.9
2018-08-24T05:23:03.081Z,22.9
2018-08-24T05:23:53.473Z,22.9
2018-08-24T05:24:43.765Z,22.9
2018-08-24T05:25:33.296Z,22.9
2018-08-24T05:26:22.757Z,22.9
2018-08-24T05:27:13.346Z,22.9
2018-08-24T05:28:03.833Z,22.9
2018-08-24T05:28:53.240Z,22.9
2018-08-24T05:29:43.780Z,22.9
2018-08-24T05:30:33.540Z,22.9
2018-08-24T05:31:23.927Z,22.9
2018-08-24T05:32:13.791Z,22.9
2018-08-24T05:33:03.784Z,22.9
2018-08-24T05:33:52.982Z,22.9
2018-08-24T05:34:43.702Z,22.9
2018-08-24T05:35:34.538Z,22.9
2018-08-24T05:36:24.380Z,22.9
2018-08-24T05:37:13.305Z,22.9
2018-08-24T05:38:03.990Z,22.9
2018-08-24T05:38:53.701Z,22.9
2018-08-24T05:39:43.682Z,22.9
2018-08-24T05:40:34.029Z,22.9
2018-08-24T05:41:26.169Z,22.9
2018-08-24T05:42:14.242Z,22.9
2018-08-24T05:43:05.140Z,22.9
2018-08-24T05:43:55.173Z,22.9
2018-08-24T05:44:45.323Z,22.9
2018-08-24T05:45:35.263Z,22.9
2018-08-24T05:46:24.600Z,22.9
2018-08-24T05:47:14.964Z,22.9
2018-08-24T05:48:04.966Z,22.9
2018-08-24T05:48:56.873Z,22.9
2018-08-24T05:49:45.709Z,22.9
2018-08-24T05:50:35.354Z,22.9
2018-08-24T05:51:25.292Z,22.9
2018-08-24T05:52:15.616Z,22.9
2018-08-24T05:53:04.750Z,22.9
2018-08-24T05:53:55.375Z,22.9
2018-08-24T05:54:45.430Z,22.9
2018-08-24T05:55:36.065Z,22.9
2018-08-24T05:56:26.426Z,22.9
2018-08-24T05:57:16.774Z,22.9
2018-08-24T05:58:05.147Z,22.9
2018-08-24T05:58:56.397Z,22.9
2018-08-24T05:59:44.686Z,22.9
2018-08-24T06:00:37.078Z,22.9
2018-08-24T06:01:25.681Z,22.9
2018-08-24T06:02:16.628Z,22.9
2018-08-24T06:03:06.727Z,22.9
2018-08-24T06:03:56.416Z,22.9
2018-08-24T06:04:47.093Z,22.9
2018-08-24T06:05:36.359Z,22.9
2018-08-24T06:06:27.163Z,22.9
2018-08-24T06:07:17.516Z,22.9
2018-08-24T06:08:06.459Z,22.9
2018-08-24T06:08:56.529Z,22.9
2018-08-24T06:09:46.943Z,22.9
2018-08-24T06:10:36.423Z,22.9
2018-08-24T06:11:26.959Z,22.9
2018-08-24T06:12:17.344Z,22.9
2018-08-24T06:13:07.414Z,22.9
2018-08-24T06:13:57.195Z,22.9
2018-08-24T06:14:47.928Z,22.9
2018-08-24T06:15:37.065Z,22.9
2018-08-24T06:16:27.399Z,22.9
2018-08-24T06:17:17.763Z,22.9
2018-08-24T06:18:07.367Z,22.9
2018-08-24T06:18:57.655Z,22.9
2018-08-24T06:19:47.405Z,22.9
2018-08-24T06:20:37.832Z,22.9
2018-08-24T06:21:27.565Z,22.9
2018-08-24T06:22:17.595Z,22.9
2018-08-24T06:23:08.245Z,22.9
2018-08-24T06:23:56.615Z,22.9
2018-08-24T06:24:47.398Z,22.9
2018-08-24T06:25:38.125Z,22.9
2018-08-24T06:26:28.475Z,22.9
2018-08-24T06:27:18.037Z,22.9
2018-08-24T06:28:06.525Z,22.9
2018-08-24T06:28:56.992Z,22.9
2018-08-24T06:29:48.485Z,22.9
2018-08-24T06:30:38.764Z,22.9
2018-08-24T06:31:28.298Z,22.9
2018-08-24T06:32:19.136Z,22.9
2018-08-24T06:33:09.858Z,22.9
2018-08-24T06:33:59.111Z,22.9
2018-08-24T06:34:49.159Z,22.9
2018-08-24T06:35:37.995Z,22.9
2018-08-24T06:36:29.238Z,22.9
2018-08-24T06:37:19.289Z,22.9
2018-08-24T06:38:09.576Z,22.9
2018-08-24T06:38:59.705Z,22.9
2018-08-24T06:39:48.587Z,22.9
2018-08-24T06:40:39.317Z,22.9
2018-08-24T06:41:29.000Z,22.9
2018-08-24T06:42:19.366Z,22.9
2018-08-24T06:43:10.328Z,22.9
2018-08-24T06:43:59.085Z,22.9
2018-08-24T06:44:49.547Z,22.9
2018-08-24T06:45:39.663Z,22.9
2018-08-24T06:46:29.475Z,22.9
2018-08-24T06:47:21.581Z,22.9
2018-08-24T06:48:08.730Z,22.9
2018-08-24T06:48:57.945Z,22.9
2018-08-24T06:49:50.277Z,22.9
2018-08-24T06:50:39.421Z,22.9
2018-08-24T06:51:30.059Z,22.9
2018-08-24T06:52:20.170Z,22.9
2018-08-24T06:53:11.671Z,22.9
2018-08-24T06:54:02.716Z,22.9
2018-08-24T06:54:49.504Z,22.9
2018-08-24T06:55:40.416Z,22.9
2018-08-24T06:56:30.309Z,22.9
2018-08-24T06:57:20.839Z,22.9
2018-08-24T06:58:10.429Z,22.9
2018-08-24T06:59:01.196Z,22.9
2018-08-24T06:59:52.435Z,22.9
2018-08-24T07:00:39.682Z,22.9
2018-08-24T07:01:30.921Z,22.9
2018-08-24T07:02:20.966Z,22.9
2018-08-24T07:03:11.609Z,22.9
2018-08-24T07:04:01.603Z,22.9
2018-08-24T07:04:51.135Z,22.9
2018-08-24T07:05:42.200Z,22.9
2018-08-24T07:06:30.735Z,22.9
2018-08-24T07:07:20.776Z,22.9
2018-08-24T07:08:11.472Z,22.9
2018-08-24T07:09:02.305Z,22.9
2018-08-24T07:09:51.243Z,22.9
2018-08-24T07:10:41.666Z,22.9
2018-08-24T07:11:32.218Z,22.9
2018-08-24T07:12:22.051Z,22.9
2018-08-24T07:13:13.263Z,22.9
2018-08-24T07:14:01.844Z,22.9
2018-08-24T07:14:52.406Z,22.9
2018-08-24T07:15:41.419Z,22.9
2018-08-24T07:16:32.297Z,22.9
2018-08-24T07:17:22.688Z,22.9
2018-08-24T07:18:12.441Z,22.9
2018-08-24T07:19:02.285Z,22.9
2018-08-24T07:19:52.283Z,22.9
2018-08-24T07:20:42.341Z,22.9
2018-08-24T07:21:31.354Z,22.9
2018-08-24T07:22:21.603Z,22.9
2018-08-24T07:23:11.824Z,22.9
2018-08-24T07:24:03.629Z,22.9
2018-08-24T07:24:52.641Z,22.9
2018-08-24T07:25:42.423Z,22.9
2018-08-24T07:26:32.503Z,22.9
2018-08-24T07:27:22.596Z,22.9
2018-08-24T07:28:13.439Z,22.9
2018-08-24T07:29:03.739Z,22.9
2018-08-24T07:29:53.067Z,22.9
2018-08-24T07:30:43.361Z,22.9
2018-08-24T07:31:32.904Z,22.9
2018-08-24T07:32:23.225Z,22.9
2018-08-24T07:33:13.085Z,22.9
2018-08-24T07:34:03.081Z,22.9
2018-08-24T07:34:53.670Z,22.9
2018-08-24T07:35:43.778Z,22.9
2018-08-24T07:36:33.022Z,22.9
2018-08-24T07:37:23.369Z,22.9
2018-08-24T07:38:13.167Z,22.9
2018-08-24T07:39:04.070Z,22.9
2018-08-24T07:39:54.329Z,22.9
2018-08-24T07:40:44.181Z,22.9
2018-08-24T07:41:35.079Z,22.9
2018-08-24T07:42:23.184Z,22.9
2018-08-24T07:43:14.072Z,22.9
2018-08-24T07:44:03.590Z,23
2018-08-24T07:44:54.222Z,22.9
2018-08-24T07:45:44.359Z,22.9
2018-08-24T07:46:33.855Z,23
2018-08-24T07:47:23.577Z,23
2018-08-24T07:48:14.270Z,22.9
2018-08-24T07:49:05.163Z,22.9
2018-08-24T07:49:54.524Z,22.9
2018-08-24T07:50:45.138Z,22.9
2018-08-24T07:51:34.717Z,22.9
2018-08-24T07:52:25.064Z,23
2018-08-24T07:53:14.884Z,23
2018-08-24T07:54:05.504Z,22.9
2018-08-24T07:54:54.893Z,23
2018-08-24T07:55:45.400Z,23
2018-08-24T07:56:35.380Z,22.9
2018-08-24T07:57:25.253Z,22.9
2018-08-24T07:58:15.205Z,22.9
2018-08-24T07:59:05.620Z,22.9
2018-08-24T07:59:56.442Z,22.9
2018-08-24T08:00:44.469Z,23
2018-08-24T08:01:35.804Z,22.9
2018-08-24T08:02:26.124Z,22.9
2018-08-24T08:03:15.659Z,22.9
2018-08-24T08:04:06.220Z,23
2018-08-24T08:04:56.280Z,23
2018-08-24T08:05:46.558Z,23
2018-08-24T08:06:36.227Z,23
2018-08-24T08:07:25.951Z,23
2018-08-24T08:08:15.730Z,23
2018-08-24T08:09:05.473Z,23
2018-08-24T08:09:56.739Z,23
2018-08-24T08:10:45.676Z,23
2018-08-24T08:11:35.997Z,23
2018-08-24T08:12:26.412Z,23
2018-08-24T08:13:15.807Z,23
2018-08-24T08:14:07.075Z,23
2018-08-24T08:14:55.980Z,23
2018-08-24T08:15:46.674Z,23
2018-08-24T08:16:36.984Z,23
2018-08-24T08:17:26.270Z,23
2018-08-24T08:18:19.132Z,23
2018-08-24T08:19:06.303Z,23
2018-08-24T08:19:57.429Z,23
2018-08-24T08:20:46.691Z,23
2018-08-24T08:21:36.176Z,23
2018-08-24T08:22:26.600Z,23
2018-08-24T08:23:17.262Z,23
2018-08-24T08:24:06.717Z,23
2018-08-24T08:24:59.017Z,23
2018-08-24T08:25:47.377Z,23
2018-08-24T08:26:37.720Z,23
2018-08-24T08:27:27.590Z,23
2018-08-24T08:28:18.157Z,23
2018-08-24T08:29:07.889Z,23
2018-08-24T08:29:57.696Z,23
2018-08-24T08:30:47.026Z,23
2018-08-24T08:31:37.283Z,23
2018-08-24T08:32:27.923Z,23
2018-08-24T08:33:18.222Z,23
2018-08-24T08:34:08.012Z,23
2018-08-24T08:34:58.678Z,23
2018-08-24T08:35:48.943Z,23
2018-08-24T08:36:38.450Z,23
2018-08-24T08:37:28.540Z,23
2018-08-24T08:38:18.393Z,23
2018-08-24T08:39:09.096Z,23
2018-08-24T08:39:58.495Z,23
2018-08-24T08:40:48.274Z,23
2018-08-24T08:41:38.581Z,23
2018-08-24T08:42:28.955Z,23
2018-08-24T08:43:18.798Z,23
2018-08-24T08:44:08.220Z,23
2018-08-24T08:44:58.940Z,23
2018-08-24T08:45:48.974Z,23
2018-08-24T08:46:39.050Z,23
2018-08-24T08:47:29.634Z,23
2018-08-24T08:48:19.136Z,23
2018-08-24T08:49:09.786Z,23
2018-08-24T08:49:59.536Z,23
2018-08-24T08:50:50.223Z,23
2018-08-24T08:51:39.673Z,23
2018-08-24T08:52:28.689Z,23
2018-08-24T08:53:19.226Z,23
2018-08-24T08:54:09.667Z,23
2018-08-24T08:54:59.247Z,23
2018-08-24T08:55:48.166Z,23
2018-08-24T08:56:39.311Z,23
2018-08-24T08:57:29.385Z,23
2018-08-24T08:58:20.472Z,23
2018-08-24T09:15:02.335Z,23
2018-08-24T09:15:51.627Z,23
2018-08-24T09:16:40.537Z,23.1
2018-08-24T09:17:30.871Z,23
2018-08-24T09:18:21.230Z,23
2018-08-24T09:19:11.351Z,23
2018-08-24T09:20:02.090Z,23
2018-08-24T09:20:51.383Z,23
2018-08-24T09:21:41.459Z,23.1
2018-08-24T09:22:31.562Z,23
2018-08-24T09:23:20.188Z,23.1
2018-08-24T09:24:11.719Z,23
2018-08-24T09:25:01.476Z,23
2018-08-24T09:25:53.462Z,23.1
2018-08-24T09:26:42.164Z,23.1
2018-08-24T09:27:31.804Z,23.1
2018-08-24T09:28:22.334Z,23
2018-08-24T09:29:12.671Z,23
2018-08-24T09:30:01.402Z,23.1
2018-08-24T09:30:52.209Z,23.1
2018-08-24T09:31:42.334Z,23.1
2018-08-24T09:32:35.789Z,23
2018-08-24T09:33:22.178Z,23.1
2018-08-24T09:34:11.432Z,23.1
2018-08-24T09:35:02.466Z,23.1
2018-08-24T09:35:50.761Z,23.1
2018-08-24T09:36:42.399Z,23.1
2018-08-24T09:37:32.478Z,23.1
2018-08-24T09:38:22.839Z,23.1
2018-08-24T09:39:11.480Z,23.1
2018-08-24T09:40:02.297Z,23.1
2018-08-24T09:40:52.759Z,23.1
2018-08-24T09:41:42.988Z,23.1
2018-08-24T09:42:32.879Z,23.1
2018-08-24T09:43:23.210Z,23.1
2018-08-24T09:44:13.778Z,23.1
2018-08-24T09:45:03.430Z,23.1
2018-08-24T09:45:52.834Z,23.1
2018-08-24T09:46:42.247Z,23.1
2018-08-24T09:47:32.251Z,23.1
2018-08-24T09:48:23.678Z,23.1
2018-08-24T09:49:16.334Z,23.1
2018-08-24T09:50:03.541Z,23.1
2018-08-24T09:50:53.682Z,23.1
2018-08-24T09:51:44.382Z,23.1
2018-08-24T09:52:34.324Z,23.1
2018-08-24T09:53:24.045Z,23.1
2018-08-24T09:54:13.453Z,23.1
2018-08-24T09:55:03.826Z,23.1
2018-08-24T09:55:54.163Z,23.1
2018-08-24T09:56:44.325Z,23.1
2018-08-24T09:57:34.335Z,23.1
2018-08-24T09:58:24.865Z,23.1
2018-08-24T09:59:14.641Z,23.1
2018-08-24T10:00:05.048Z,23.1
2018-08-24T10:00:54.371Z,23.1
2018-08-24T10:01:44.958Z,23.1
2018-08-24T10:02:35.114Z,23.1
2018-08-24T10:03:24.465Z,23.1
2018-08-24T10:04:15.315Z,23.1
2018-08-24T10:05:04.564Z,23.1
2018-08-24T10:05:54.061Z,23.1
2018-08-24T10:06:45.714Z,23.1
2018-08-24T10:07:35.404Z,23.1
2018-08-24T10:08:25.201Z,23.1
2018-08-24T10:09:14.678Z,23.1
2018-08-24T10:10:06.081Z,23.1
2018-08-24T10:10:55.576Z,23.1
2018-08-24T10:11:45.773Z,23.1
2018-08-24T10:12:36.262Z,23.1
2018-08-24T10:13:27.657Z,23.1
2018-08-24T10:14:15.393Z,23.1
2018-08-24T10:15:04.962Z,23.1
2018-08-24T10:15:56.254Z,23.1
2018-08-24T10:16:46.610Z,23.1
2018-08-24T10:17:35.848Z,23.1
2018-08-24T10:18:25.869Z,23.1
2018-08-24T10:19:16.212Z,23.1
2018-08-24T10:20:06.149Z,23.1
2018-08-24T10:20:56.468Z,23.1
2018-08-24T10:21:45.939Z,23.1
2018-08-24T10:22:35.650Z,23.1
2018-08-24T10:23:26.558Z,23.1
2018-08-24T10:24:16.624Z,23.1
2018-08-24T10:25:07.190Z,23.1
2018-08-24T10:25:57.003Z,23.1
2018-08-24T10:26:46.935Z,23.1
2018-08-24T10:27:36.717Z,23.1
2018-08-24T10:28:27.526Z,23.1
2018-08-24T10:29:18.451Z,23.1
2018-08-24T10:30:07.384Z,23.1
2018-08-24T10:30:56.642Z,23.1
2018-08-24T10:31:46.209Z,23.1
2018-08-24T10:32:36.846Z,23.1
2018-08-24T10:33:27.633Z,23.1
2018-08-24T10:34:16.954Z,23.1
2018-08-24T10:35:07.583Z,23.1
2018-08-24T10:35:57.043Z,23.1
2018-08-24T10:36:48.452Z,23.1
2018-08-24T10:37:37.178Z,23.1
2018-08-24T10:38:27.825Z,23.1
2018-08-24T10:39:18.387Z,23.1
2018-08-24T10:40:07.396Z,23.1
2018-08-24T10:40:58.072Z,23.1
2018-08-24T10:41:48.554Z,23.1
2018-08-24T10:42:37.842Z,23.1
2018-08-24T10:43:26.844Z,23.1
2018-08-24T10:44:17.741Z,23.1
2018-08-24T10:45:07.839Z,23.1
2018-08-24T10:45:58.680Z,23.1
2018-08-24T10:46:47.276Z,23.1
2018-08-24T10:47:37.666Z,23.1
2018-08-24T10:48:28.654Z,23.1
2018-08-24T10:49:18.760Z,23.1
2018-08-24T10:50:08.730Z,23.1
2018-08-24T10:50:58.778Z,23.1
2018-08-24T10:51:47.741Z,23.1
2018-08-24T10:52:38.592Z,23.1
2018-08-24T10:53:29.004Z,23.1
2018-08-24T10:54:18.969Z,23.1
2018-08-24T10:55:10.500Z,23.1
2018-08-24T10:56:00.713Z,23.1
2018-08-24T10:56:48.718Z,23.1
2018-08-24T10:57:38.279Z,23.1
2018-08-24T10:58:28.669Z,23.1
2018-08-24T10:59:19.391Z,23.1
2018-08-24T11:00:09.517Z,23.1
2018-08-24T11:00:58.726Z,23.1
2018-08-24T11:01:48.573Z,23.1
2018-08-24T11:02:39.679Z,23.1
2018-08-24T11:03:29.481Z,23.1
2018-08-24T11:04:19.514Z,23.1
2018-08-24T11:05:08.795Z,23.1
2018-08-24T11:05:59.244Z,23.1
2018-08-24T11:06:50.261Z,23.1
2018-08-24T11:07:41.233Z,23.1
2018-08-24T11:08:30.038Z,23.1
2018-08-24T11:09:19.905Z,23.1
2018-08-24T11:10:09.726Z,23.1
2018-08-24T11:10:59.800Z,23.1
2018-08-24T11:11:50.235Z,23.1
2018-08-24T11:12:39.355Z,23.1
2018-08-24T11:13:29.745Z,23.1
2018-08-24T11:14:19.477Z,23.1
2018-08-24T11:15:10.433Z,23.1
2018-08-24T11:16:00.504Z,23.1
2018-08-24T11:16:52.445Z,23.1
2018-08-24T11:17:40.923Z,23.1
2018-08-24T11:18:31.506Z,23.1
2018-08-24T11:19:21.170Z,23.1
2018-08-24T11:20:10.617Z,23.1
2018-08-24T11:21:01.609Z,23.1
2018-08-24T11:21:51.065Z,23.1
2018-08-24T11:22:41.612Z,23.1
2018-08-24T11:23:31.822Z,23.1
2018-08-24T11:24:21.519Z,23.1
2018-08-24T11:25:11.432Z,23.1
2018-08-24T11:26:00.838Z,23.1
2018-08-24T11:26:50.938Z,23.1
2018-08-24T11:27:41.843Z,23.1
2018-08-24T11:28:32.289Z,23.1
2018-08-24T11:29:22.119Z,23.1
2018-08-24T11:30:11.342Z,23.1
2018-08-24T11:31:00.460Z,23.1
2018-08-24T11:31:51.400Z,23.1
2018-08-24T11:32:41.454Z,23.1
2018-08-24T11:33:31.684Z,23.1
2018-08-24T11:34:21.955Z,23.1
2018-08-24T11:35:12.532Z,23.1
2018-08-24T11:36:04.727Z,23.1
2018-08-24T11:36:52.299Z,23.1
2018-08-24T11:37:42.091Z,23.1
2018-08-24T11:38:31.529Z,23.1
2018-08-24T11:39:22.444Z,23.1
2018-08-24T11:40:12.085Z,23.1
2018-08-24T11:41:01.122Z,23.1
2018-08-24T11:41:54.092Z,23.1
2018-08-24T11:42:43.607Z,23.1
2018-08-24T11:43:32.261Z,23.1
2018-08-24T11:44:22.963Z,23.1
2018-08-24T11:45:12.491Z,23.1
2018-08-24T11:46:02.514Z,23.1
2018-08-24T11:46:53.138Z,23.1
2018-08-24T11:47:42.762Z,23.2
2018-08-24T11:48:33.239Z,23.2
2018-08-24T11:49:21.988Z,23.2
2018-08-24T11:50:13.127Z,23.3
2018-08-24T11:51:02.905Z,23.3
2018-08-24T11:51:53.825Z,23.3
2018-08-24T11:52:43.307Z,23.4
2018-08-24T11:53:34.548Z,23.4
2018-08-24T11:54:24.361Z,23.4
2018-08-24T11:55:13.663Z,23.4
2018-08-24T11:56:04.148Z,23.4
2018-08-24T11:56:53.484Z,23.5
2018-08-24T11:57:42.985Z,23.5
2018-08-24T11:58:34.473Z,23.6
2018-08-24T11:59:24.009Z,23.6
2018-08-24T12:00:13.722Z,23.6
2018-08-24T12:01:04.051Z,23.6
2018-08-24T12:01:53.940Z,23.6
2018-08-24T12:02:43.609Z,23.6
2018-08-24T12:03:33.921Z,23.6
2018-08-24T12:04:23.483Z,23.6
2018-08-24T12:05:13.195Z,23.6
2018-08-24T12:06:04.159Z,23.7